John P. Brown — WDA9975 — position and weather

sailwx.info

Track history (hours):
 
Tides and Currents Weather Stations Pressure Air Temp Water Temp Dewpoint Dewpoint Depression Visibility Wind Speed Wind Dir Waves Ship Positions

John P. Brown

Owner: THOMAS J. BROWN & SONS INC., STATEN ISLAND, NY. More information available from US FCC via Universal Licensing System and Coast Guard Vessel Documentation Center.

Last reported at 2017-Nov-17 20:19 UTC. Time now 2017-Nov-18 17:51 UTC.
Position N 40°38' W 074°10'.

Length 23 m; draft 2.8 m.

Type: Tug. MMSI: 366870980.

Date/timePositionNaut miles runAvg speedWind from/ knotsBaromVisibWave heightAir tempDewpointWater temp
2017-Nov-17 20:19N 40°38' W 074°10'2 7.2
2017-Nov-17 20:00N 40°39' W 074°07'510.2
2017-Nov-17 19:30N 40°42' W 074°01'2 4.2
2017-Nov-17 19:00N 40°42' W 073°59'2 3.1
2017-Nov-17 18:30N 40°44' W 073°58'3 5.0
2017-Nov-17 17:52N 40°47' W 073°56'0 0.2
2017-Nov-17 17:26N 40°47' W 073°57'0 0.1
2017-Nov-17 17:00N 40°47' W 073°57'1 2.4
2017-Nov-17 16:30N 40°46' W 073°57'3 5.8
2017-Nov-17 16:00N 40°43' W 073°58'1 1.5
2017-Nov-17 15:30N 40°42' W 073°59'2 4.2
2017-Nov-17 15:00N 40°44' W 073°58'0 0.8
2017-Nov-17 14:30N 40°44' W 073°58'4 7.3
2017-Nov-17 14:00N 40°41' W 074°01'1 2.4
2017-Nov-17 13:30N 40°40' W 074°00'510.4
2017-Nov-17 13:00N 40°39' W 074°07'3 6.6
2017-Nov-17 12:30N 40°39' W 074°11'3 5.9
2017-Nov-17 12:00N 40°39' W 074°07'3 5.5
2017-Nov-17 11:30N 40°40' W 074°04'3 5.4
2017-Nov-17 11:00N 40°39' W 074°07'3 5.2
2017-Nov-17 10:30N 40°39' W 074°11'1 1.2
2017-Nov-17 10:00N 40°39' W 074°11'1 2.9
2017-Nov-17 09:30N 40°38' W 074°10'0 0.0
2017-Nov-16 19:48N 40°38' W 074°10'2 5.8
2017-Nov-16 19:30N 40°39' W 074°07'3 6.3
2017-Nov-16 19:01N 40°40' W 074°04'611.0
2017-Nov-16 18:30N 40°44' W 073°58'4 7.1
2017-Nov-16 18:00N 40°47' W 073°56'0 0.8
2017-Nov-16 17:30N 40°47' W 073°56'2 4.1
2017-Nov-16 17:00N 40°45' W 073°58'3 6.0
2017-Nov-16 16:30N 40°42' W 073°60'3 6.9
2017-Nov-16 16:01N 40°40' W 074°03'3 5.5
2017-Nov-16 15:30N 40°39' W 074°07'2 4.8
2017-Nov-16 15:00N 40°41' W 074°04'1 2.9
2017-Nov-16 14:31N 40°40' W 074°03'1 2.7
2017-Nov-16 14:00N 40°39' W 074°02'0 0.2
2017-Nov-16 13:30N 40°39' W 074°02'2 4.7
2017-Nov-16 13:00N 40°41' W 074°04'0 0.4
2017-Nov-16 12:31N 40°41' W 074°04'2 3.6
2017-Nov-16 12:00N 40°40' W 074°02'1 1.9
2017-Nov-16 11:30N 40°40' W 074°03'1 1.6
2017-Nov-16 11:00N 40°40' W 074°04'4 7.2
2017-Nov-16 10:29N 40°39' W 074°08'1 0.1
2017-Nov-15 22:13N 40°38' W 074°10'2 8.2
2017-Nov-15 22:00N 40°39' W 074°07'5 9.9
2017-Nov-15 21:30N 40°41' W 074°02'1 2.0
2017-Nov-15 21:00N 40°41' W 074°00'2 4.7
2017-Nov-15 20:30N 40°41' W 074°03'3 5.2
2017-Nov-15 20:00N 40°39' W 074°06'2 4.3
2017-Nov-15 19:30N 40°38' W 074°09'2 4.5
2017-Nov-15 19:00N 40°39' W 074°12'2 4.3
2017-Nov-15 18:30N 40°39' W 074°09'4 8.1
2017-Nov-15 18:00N 40°40' W 074°04'0 0.4
2017-Nov-15 17:30N 40°40' W 074°04'2 4.0
2017-Nov-15 17:00N 40°39' W 074°02'0 0.1
2017-Nov-15 16:30N 40°39' W 074°02'1 2.8
2017-Nov-15 16:00N 40°40' W 074°03'1 2.7
2017-Nov-15 15:30N 40°41' W 074°04'0 0.0
2017-Nov-15 15:00N 40°41' W 074°04'2 3.5
2017-Nov-15 14:30N 40°40' W 074°03'1 2.1
2017-Nov-15 14:00N 40°39' W 074°02'0 0.0
2017-Nov-15 13:30N 40°39' W 074°02'2 4.6
2017-Nov-15 13:00N 40°40' W 074°04'1 1.7
2017-Nov-15 12:30N 40°40' W 074°03'1 1.3
2017-Nov-15 12:00N 40°40' W 074°02'1 2.1
2017-Nov-15 11:30N 40°40' W 074°04'0 0.4
2017-Nov-15 11:00N 40°40' W 074°04'5 8.7
2017-Nov-15 10:29N 40°38' W 074°09'0 0.0
2017-Nov-15 00:28N 40°38' W 074°10'3 7.1
2017-Nov-15 00:00N 40°39' W 074°05'2 3.4
2017-Nov-14 23:30N 40°41' W 074°04'1 1.3
2017-Nov-14 23:00N 40°40' W 074°04'3 5.5
2017-Nov-14 22:30N 40°37' W 074°04'0 0.5
2017-Nov-14 22:00N 40°37' W 074°03'0 0.1
2017-Nov-14 21:27N 40°37' W 074°03'0 0.2
2017-Nov-14 21:00N 40°37' W 074°03'0 0.0
2017-Nov-14 20:30N 40°37' W 074°03'0 0.0
2017-Nov-14 20:00N 40°37' W 074°03'0 0.1
2017-Nov-14 19:30N 40°37' W 074°03'0 0.3
2017-Nov-14 19:00N 40°37' W 074°03'0 0.2
2017-Nov-14 18:30N 40°37' W 074°03'0 0.0
2017-Nov-14 18:00N 40°37' W 074°03'0 0.1
2017-Nov-14 17:30N 40°37' W 074°03'0 0.2
2017-Nov-14 17:00N 40°37' W 074°03'0 0.2
2017-Nov-14 16:30N 40°37' W 074°03'0 0.3
2017-Nov-14 15:59N 40°37' W 074°03'0 0.0
2017-Nov-14 15:30N 40°37' W 074°03'0 0.3
2017-Nov-14 15:00N 40°37' W 074°03'0 0.1
2017-Nov-14 14:30N 40°37' W 074°03'3 5.1
2017-Nov-14 14:00N 40°39' W 074°06'  
2017-Nov-11 01:42N 40°38' W 074°10'0 0.6
2017-Nov-11 01:30N 40°38' W 074°10'4 8.8
2017-Nov-11 01:00N 40°40' W 074°04'2 1.7
2017-Nov-11 00:00N 40°40' W 074°02'2 4.4
2017-Nov-10 23:30N 40°39' W 074°04'4 6.6
2017-Nov-10 22:57N 40°39' W 074°09'2 1.7
2017-Nov-10 22:00N 40°39' W 074°11'2 4.1
2017-Nov-10 21:30N 40°39' W 074°09'0 0.8
2017-Nov-10 21:00N 40°39' W 074°09'4 8.2
2017-Nov-10 20:30N 40°40' W 074°04'5 9.5
2017-Nov-10 20:00N 40°43' W 073°59'4 3.7
2017-Nov-10 18:53N 40°47' W 073°56'411.7
2017-Nov-10 18:30N 40°43' W 073°59'5 9.1
2017-Nov-10 18:00N 40°41' W 074°04'0 0.0
2017-Nov-10 17:31N 40°41' W 074°04'0 0.0
2017-Nov-10 17:00N 40°41' W 074°04'1 1.9
2017-Nov-10 16:30N 40°40' W 074°03'2 3.7
2017-Nov-10 16:00N 40°40' W 074°01'2 4.3
2017-Nov-10 15:30N 40°40' W 074°04'3 6.4
2017-Nov-10 15:00N 40°39' W 074°08'1 2.4
2017-Nov-10 14:30N 40°39' W 074°09'0 1.0
2017-Nov-10 14:00N 40°40' W 074°09'1 1.3
2017-Nov-10 13:30N 40°39' W 074°09'1 2.8
2017-Nov-10 12:58N 40°39' W 074°11'1 2.1
2017-Nov-10 12:30N 40°38' W 074°10'0 0.0
2017-Nov-10 11:59N 40°38' W 074°10'0 0.0
2017-Nov-09 21:18N 40°38' W 074°10'2 5.2
2017-Nov-09 21:00N 40°39' W 074°08'4 8.0
2017-Nov-09 20:30N 40°40' W 074°03'1 2.0
2017-Nov-09 20:00N 40°40' W 074°02'4 8.0
2017-Nov-09 19:30N 40°39' W 074°06'2 4.7
2017-Nov-09 18:59N 40°41' W 074°08'4 7.8
2017-Nov-09 18:30N 40°44' W 074°05'0 0.7
2017-Nov-09 18:00N 40°44' W 074°05'0 0.3
2017-Nov-09 17:30N 40°44' W 074°05'0 0.2
2017-Nov-09 17:00N 40°45' W 074°05'0 0.3
2017-Nov-09 16:30N 40°45' W 074°05'0 0.3
2017-Nov-09 16:00N 40°44' W 074°05'0 0.1
2017-Nov-09 15:30N 40°44' W 074°05'3 6.4
2017-Nov-09 15:00N 40°42' W 074°07'1 2.2
2017-Nov-09 14:30N 40°42' W 074°09'0 0.1
2017-Nov-09 13:59N 40°42' W 074°09'0 0.1
2017-Nov-09 13:30N 40°42' W 074°09'0 0.1
2017-Nov-09 12:59N 40°42' W 074°09'3 6.1
2017-Nov-09 12:30N 40°39' W 074°09'1 1.3
2017-Nov-09 12:00N 40°38' W 074°10'0 0.0
2017-Nov-09 11:30N 40°38' W 074°10'0 0.0
2017-Nov-09 11:00N 40°38' W 074°10'0 0.0
2017-Nov-08 17:14N 40°38' W 074°10'0 0.2
2017-Nov-08 17:00N 40°38' W 074°10'0 0.0
2017-Nov-08 16:30N 40°38' W 074°10'  
Track history (hours):
 
Tides and Currents Weather Stations Pressure Air Temp Water Temp Dewpoint Dewpoint Depression Visibility Wind Speed Wind Dir Waves Ship Positions

John P. Brown

Owner: THOMAS J. BROWN & SONS INC., STATEN ISLAND, NY. More information available from US FCC via Universal Licensing System and Coast Guard Vessel Documentation Center.

Last reported at 2017-Nov-17 20:19 UTC. Time now 2017-Nov-18 17:51 UTC.
Position N 40°38' W 074°10'.

Length 23 m; draft 2.8 m.

Type: Tug. MMSI: 366870980.

Date/timePositionNaut miles runAvg speedWind from/ knotsBaromVisibWave heightAir tempDewpointWater temp
2017-Nov-17 20:19N 40°38' W 074°10'2 7.2
2017-Nov-17 20:00N 40°39' W 074°07'510.2
2017-Nov-17 19:30N 40°42' W 074°01'2 4.2
2017-Nov-17 19:00N 40°42' W 073°59'2 3.1
2017-Nov-17 18:30N 40°44' W 073°58'3 5.0
2017-Nov-17 17:52N 40°47' W 073°56'0 0.2
2017-Nov-17 17:26N 40°47' W 073°57'0 0.1
2017-Nov-17 17:00N 40°47' W 073°57'1 2.4
2017-Nov-17 16:30N 40°46' W 073°57'3 5.8
2017-Nov-17 16:00N 40°43' W 073°58'1 1.5
2017-Nov-17 15:30N 40°42' W 073°59'2 4.2
2017-Nov-17 15:00N 40°44' W 073°58'0 0.8
2017-Nov-17 14:30N 40°44' W 073°58'4 7.3
2017-Nov-17 14:00N 40°41' W 074°01'1 2.4
2017-Nov-17 13:30N 40°40' W 074°00'510.4
2017-Nov-17 13:00N 40°39' W 074°07'3 6.6
2017-Nov-17 12:30N 40°39' W 074°11'3 5.9
2017-Nov-17 12:00N 40°39' W 074°07'3 5.5
2017-Nov-17 11:30N 40°40' W 074°04'3 5.4
2017-Nov-17 11:00N 40°39' W 074°07'3 5.2
2017-Nov-17 10:30N 40°39' W 074°11'1 1.2
2017-Nov-17 10:00N 40°39' W 074°11'1 2.9
2017-Nov-17 09:30N 40°38' W 074°10'0 0.0
2017-Nov-16 19:48N 40°38' W 074°10'2 5.8
2017-Nov-16 19:30N 40°39' W 074°07'3 6.3
2017-Nov-16 19:01N 40°40' W 074°04'611.0
2017-Nov-16 18:30N 40°44' W 073°58'4 7.1
2017-Nov-16 18:00N 40°47' W 073°56'0 0.8
2017-Nov-16 17:30N 40°47' W 073°56'2 4.1
2017-Nov-16 17:00N 40°45' W 073°58'3 6.0
2017-Nov-16 16:30N 40°42' W 073°60'3 6.9
2017-Nov-16 16:01N 40°40' W 074°03'3 5.5
2017-Nov-16 15:30N 40°39' W 074°07'2 4.8
2017-Nov-16 15:00N 40°41' W 074°04'1 2.9
2017-Nov-16 14:31N 40°40' W 074°03'1 2.7
2017-Nov-16 14:00N 40°39' W 074°02'0 0.2
2017-Nov-16 13:30N 40°39' W 074°02'2 4.7
2017-Nov-16 13:00N 40°41' W 074°04'0 0.4
2017-Nov-16 12:31N 40°41' W 074°04'2 3.6
2017-Nov-16 12:00N 40°40' W 074°02'1 1.9
2017-Nov-16 11:30N 40°40' W 074°03'1 1.6
2017-Nov-16 11:00N 40°40' W 074°04'4 7.2
2017-Nov-16 10:29N 40°39' W 074°08'1 0.1
2017-Nov-15 22:13N 40°38' W 074°10'2 8.2
2017-Nov-15 22:00N 40°39' W 074°07'5 9.9
2017-Nov-15 21:30N 40°41' W 074°02'1 2.0
2017-Nov-15 21:00N 40°41' W 074°00'2 4.7
2017-Nov-15 20:30N 40°41' W 074°03'3 5.2
2017-Nov-15 20:00N 40°39' W 074°06'2 4.3
2017-Nov-15 19:30N 40°38' W 074°09'2 4.5
2017-Nov-15 19:00N 40°39' W 074°12'2 4.3
2017-Nov-15 18:30N 40°39' W 074°09'4 8.1
2017-Nov-15 18:00N 40°40' W 074°04'0 0.4
2017-Nov-15 17:30N 40°40' W 074°04'2 4.0
2017-Nov-15 17:00N 40°39' W 074°02'0 0.1
2017-Nov-15 16:30N 40°39' W 074°02'1 2.8
2017-Nov-15 16:00N 40°40' W 074°03'1 2.7
2017-Nov-15 15:30N 40°41' W 074°04'0 0.0
2017-Nov-15 15:00N 40°41' W 074°04'2 3.5
2017-Nov-15 14:30N 40°40' W 074°03'1 2.1
2017-Nov-15 14:00N 40°39' W 074°02'0 0.0
2017-Nov-15 13:30N 40°39' W 074°02'2 4.6
2017-Nov-15 13:00N 40°40' W 074°04'1 1.7
2017-Nov-15 12:30N 40°40' W 074°03'1 1.3
2017-Nov-15 12:00N 40°40' W 074°02'1 2.1
2017-Nov-15 11:30N 40°40' W 074°04'0 0.4
2017-Nov-15 11:00N 40°40' W 074°04'5 8.7
2017-Nov-15 10:29N 40°38' W 074°09'0 0.0
2017-Nov-15 00:28N 40°38' W 074°10'3 7.1
2017-Nov-15 00:00N 40°39' W 074°05'2 3.4
2017-Nov-14 23:30N 40°41' W 074°04'1 1.3
2017-Nov-14 23:00N 40°40' W 074°04'3 5.5
2017-Nov-14 22:30N 40°37' W 074°04'0 0.5
2017-Nov-14 22:00N 40°37' W 074°03'0 0.1
2017-Nov-14 21:27N 40°37' W 074°03'0 0.2
2017-Nov-14 21:00N 40°37' W 074°03'0 0.0
2017-Nov-14 20:30N 40°37' W 074°03'0 0.0
2017-Nov-14 20:00N 40°37' W 074°03'0 0.1
2017-Nov-14 19:30N 40°37' W 074°03'0 0.3
2017-Nov-14 19:00N 40°37' W 074°03'0 0.2
2017-Nov-14 18:30N 40°37' W 074°03'0 0.0
2017-Nov-14 18:00N 40°37' W 074°03'0 0.1
2017-Nov-14 17:30N 40°37' W 074°03'0 0.2
2017-Nov-14 17:00N 40°37' W 074°03'0 0.2
2017-Nov-14 16:30N 40°37' W 074°03'0 0.3
2017-Nov-14 15:59N 40°37' W 074°03'0 0.0
2017-Nov-14 15:30N 40°37' W 074°03'0 0.3
2017-Nov-14 15:00N 40°37' W 074°03'0 0.1
2017-Nov-14 14:30N 40°37' W 074°03'3 5.1
2017-Nov-14 14:00N 40°39' W 074°06'  
2017-Nov-11 01:42N 40°38' W 074°10'0 0.6
2017-Nov-11 01:30N 40°38' W 074°10'4 8.8
2017-Nov-11 01:00N 40°40' W 074°04'2 1.7
2017-Nov-11 00:00N 40°40' W 074°02'2 4.4
2017-Nov-10 23:30N 40°39' W 074°04'4 6.6
2017-Nov-10 22:57N 40°39' W 074°09'2 1.7
2017-Nov-10 22:00N 40°39' W 074°11'2 4.1
2017-Nov-10 21:30N 40°39' W 074°09'0 0.8
2017-Nov-10 21:00N 40°39' W 074°09'4 8.2
2017-Nov-10 20:30N 40°40' W 074°04'5 9.5
2017-Nov-10 20:00N 40°43' W 073°59'4 3.7
2017-Nov-10 18:53N 40°47' W 073°56'411.7
2017-Nov-10 18:30N 40°43' W 073°59'5 9.1
2017-Nov-10 18:00N 40°41' W 074°04'0 0.0
2017-Nov-10 17:31N 40°41' W 074°04'0 0.0
2017-Nov-10 17:00N 40°41' W 074°04'1 1.9
2017-Nov-10 16:30N 40°40' W 074°03'2 3.7
2017-Nov-10 16:00N 40°40' W 074°01'2 4.3
2017-Nov-10 15:30N 40°40' W 074°04'3 6.4
2017-Nov-10 15:00N 40°39' W 074°08'1 2.4
2017-Nov-10 14:30N 40°39' W 074°09'0 1.0
2017-Nov-10 14:00N 40°40' W 074°09'1 1.3
2017-Nov-10 13:30N 40°39' W 074°09'1 2.8
2017-Nov-10 12:58N 40°39' W 074°11'1 2.1
2017-Nov-10 12:30N 40°38' W 074°10'0 0.0
2017-Nov-10 11:59N 40°38' W 074°10'0 0.0
2017-Nov-09 21:18N 40°38' W 074°10'2 5.2
2017-Nov-09 21:00N 40°39' W 074°08'4 8.0
2017-Nov-09 20:30N 40°40' W 074°03'1 2.0
2017-Nov-09 20:00N 40°40' W 074°02'4 8.0
2017-Nov-09 19:30N 40°39' W 074°06'2 4.7
2017-Nov-09 18:59N 40°41' W 074°08'4 7.8
2017-Nov-09 18:30N 40°44' W 074°05'0 0.7
2017-Nov-09 18:00N 40°44' W 074°05'0 0.3
2017-Nov-09 17:30N 40°44' W 074°05'0 0.2
2017-Nov-09 17:00N 40°45' W 074°05'0 0.3
2017-Nov-09 16:30N 40°45' W 074°05'0 0.3
2017-Nov-09 16:00N 40°44' W 074°05'0 0.1
2017-Nov-09 15:30N 40°44' W 074°05'3 6.4
2017-Nov-09 15:00N 40°42' W 074°07'1 2.2
2017-Nov-09 14:30N 40°42' W 074°09'0 0.1
2017-Nov-09 13:59N 40°42' W 074°09'0 0.1
2017-Nov-09 13:30N 40°42' W 074°09'0 0.1
2017-Nov-09 12:59N 40°42' W 074°09'3 6.1
2017-Nov-09 12:30N 40°39' W 074°09'1 1.3
2017-Nov-09 12:00N 40°38' W 074°10'0 0.0
2017-Nov-09 11:30N 40°38' W 074°10'0 0.0
2017-Nov-09 11:00N 40°38' W 074°10'0 0.0
2017-Nov-08 17:14N 40°38' W 074°10'0 0.2
2017-Nov-08 17:00N 40°38' W 074°10'0 0.0
2017-Nov-08 16:30N 40°38' W 074°10'  

Dump ship's entire track history